ASA554 MMSD-KSMF
Flight info
| Callsign | ASA554 |
|---|---|
| Flight time | 2h 50m |
| Altitude | 36000 |
| Route | ANEGO1B ANEGO UL312 SQN/N0454F380 UT64 TIJ DCT OCN DCT WRING DCT NURAY SUUTR4 |
| Aircraft | B38M/M-SDE1FGHILORVWXY/HB1 |
Departure
| Time | 2026-04-29 12:50 |
|---|---|
| Airport | Los Cabos International Airport (MMSD) |
Arrival
| Time | 2026-04-29 15:41 |
|---|---|
| Airport | Sacramento International Airport (KSMF) |
| Time | Latitude | Longitude | Altitude | Speed | Heading |
|---|---|---|---|---|---|
| 2026-04-29 12:20 | 23.15641 | -109.71772 | 368 ft | 0 kts | 84° |
| 2026-04-29 12:40 | 23.15640 | -109.71775 | 365 ft | 3 kts | 84° |
| 2026-04-29 12:41 | 23.15638 | -109.71804 | 365 ft | 4 kts | 84° |
| 2026-04-29 12:41 | 23.15637 | -109.71825 | 366 ft | 2 kts | 110° |
| 2026-04-29 12:41 | 23.15644 | -109.71834 | 368 ft | 2 kts | 160° |
| 2026-04-29 12:41 | 23.15654 | -109.71837 | 367 ft | 2 kts | 171° |
| 2026-04-29 12:42 | 23.15665 | -109.71838 | 366 ft | 2 kts | 174° |
| 2026-04-29 12:42 | 23.15668 | -109.71839 | 366 ft | 0 kts | 174° |
| 2026-04-29 12:44 | 23.15661 | -109.71838 | 366 ft | 3 kts | 174° |
| 2026-04-29 12:45 | 23.15629 | -109.71836 | 365 ft | 6 kts | 191° |
| 2026-04-29 12:45 | 23.15607 | -109.71878 | 365 ft | 8 kts | 261° |
| 2026-04-29 12:45 | 23.15569 | -109.71910 | 369 ft | 9 kts | 177° |
| 2026-04-29 12:45 | 23.15495 | -109.71902 | 368 ft | 13 kts | 174° |
| 2026-04-29 12:46 | 23.15394 | -109.71890 | 361 ft | 17 kts | 174° |
| 2026-04-29 12:46 | 23.15266 | -109.71877 | 358 ft | 20 kts | 174° |
| 2026-04-29 12:46 | 23.15111 | -109.71859 | 357 ft | 24 kts | 174° |
| 2026-04-29 12:46 | 23.14963 | -109.71843 | 350 ft | 22 kts | 174° |
| 2026-04-29 12:47 | 23.14820 | -109.71827 | 349 ft | 21 kts | 174° |
| 2026-04-29 12:47 | 23.14661 | -109.71808 | 332 ft | 25 kts | 174° |
| 2026-04-29 12:47 | 23.14492 | -109.71789 | 327 ft | 21 kts | 174° |
| 2026-04-29 12:47 | 23.14330 | -109.71770 | 319 ft | 26 kts | 174° |
| 2026-04-29 12:48 | 23.14153 | -109.71751 | 315 ft | 26 kts | 174° |
| 2026-04-29 12:48 | 23.13974 | -109.71732 | 312 ft | 17 kts | 178° |
| 2026-04-29 12:48 | 23.13937 | -109.71783 | 313 ft | 9 kts | 264° |
| 2026-04-29 12:48 | 23.13932 | -109.71838 | 316 ft | 6 kts | 264° |
| 2026-04-29 12:49 | 23.13929 | -109.71867 | 319 ft | 3 kts | 264° |
| 2026-04-29 12:49 | 23.13925 | -109.71908 | 320 ft | 9 kts | 265° |
| 2026-04-29 12:49 | 23.13945 | -109.71936 | 320 ft | 1 kts | 354° |
| 2026-04-29 12:49 | 23.13962 | -109.71938 | 321 ft | 6 kts | 354° |
| 2026-04-29 12:50 | 23.14231 | -109.71966 | 328 ft | 74 kts | 354° |
| 2026-04-29 12:50 | 23.14959 | -109.72048 | 352 ft | 134 kts | 354° |
| 2026-04-29 12:50 | 23.16022 | -109.72162 | 596 ft | 161 kts | 354° |
| 2026-04-29 12:50 | 23.17173 | -109.72316 | 1079 ft | 173 kts | 352° |
| 2026-04-29 12:51 | 23.18385 | -109.72467 | 1718 ft | 178 kts | 353° |
| 2026-04-29 12:51 | 23.19617 | -109.72615 | 2496 ft | 175 kts | 354° |
| 2026-04-29 12:51 | 23.20814 | -109.72748 | 3237 ft | 173 kts | 353° |
| 2026-04-29 12:51 | 23.22024 | -109.72882 | 3787 ft | 184 kts | 354° |
| 2026-04-29 12:52 | 23.23375 | -109.73032 | 4175 ft | 208 kts | 354° |
| 2026-04-29 12:52 | 23.24910 | -109.73202 | 4564 ft | 234 kts | 354° |
| 2026-04-29 12:52 | 23.26593 | -109.73390 | 5073 ft | 253 kts | 354° |
| 2026-04-29 12:52 | 23.28410 | -109.73591 | 5620 ft | 271 kts | 354° |
| 2026-04-29 12:53 | 23.30314 | -109.73804 | 6383 ft | 276 kts | 353° |
| 2026-04-29 12:53 | 23.32241 | -109.74018 | 7160 ft | 282 kts | 353° |
| 2026-04-29 12:53 | 23.34199 | -109.74287 | 7944 ft | 285 kts | 345° |
| 2026-04-29 12:53 | 23.35981 | -109.75201 | 8747 ft | 286 kts | 321° |
| 2026-04-29 12:54 | 23.37283 | -109.76829 | 9531 ft | 288 kts | 298° |
| 2026-04-29 12:54 | 23.38151 | -109.78812 | 10251 ft | 294 kts | 294° |
| 2026-04-29 12:54 | 23.39029 | -109.80900 | 10631 ft | 313 kts | 293° |
| 2026-04-29 12:54 | 23.39948 | -109.83125 | 10988 ft | 330 kts | 293° |
| 2026-04-29 12:55 | 23.40892 | -109.85445 | 11546 ft | 339 kts | 292° |
| 2026-04-29 12:55 | 23.41841 | -109.87794 | 12336 ft | 341 kts | 292° |
| 2026-04-29 12:55 | 23.42800 | -109.90177 | 13053 ft | 345 kts | 292° |
| 2026-04-29 12:55 | 23.43763 | -109.92577 | 13783 ft | 348 kts | 292° |
| 2026-04-29 12:56 | 23.44735 | -109.95002 | 14447 ft | 351 kts | 291° |
| 2026-04-29 12:56 | 23.45715 | -109.97449 | 15070 ft | 354 kts | 291° |
| 2026-04-29 12:56 | 23.46703 | -109.99915 | 15691 ft | 357 kts | 291° |
| 2026-04-29 12:56 | 23.47701 | -110.02409 | 16294 ft | 361 kts | 291° |
| 2026-04-29 12:57 | 23.48708 | -110.04925 | 16873 ft | 364 kts | 291° |
| 2026-04-29 12:57 | 23.49723 | -110.07467 | 17466 ft | 367 kts | 291° |
| 2026-04-29 12:57 | 23.50748 | -110.10033 | 18037 ft | 371 kts | 290° |
| 2026-04-29 12:57 | 23.51779 | -110.12616 | 18548 ft | 374 kts | 290° |
| 2026-04-29 12:58 | 23.52820 | -110.15224 | 19041 ft | 377 kts | 290° |
| 2026-04-29 12:58 | 23.54131 | -110.17722 | 19512 ft | 385 kts | 306° |
| 2026-04-29 12:58 | 23.55981 | -110.19853 | 20029 ft | 389 kts | 311° |
| 2026-04-29 12:58 | 23.57886 | -110.21969 | 20459 ft | 393 kts | 311° |
| 2026-04-29 12:59 | 23.59818 | -110.24089 | 20946 ft | 395 kts | 311° |
| 2026-04-29 12:59 | 23.61771 | -110.26215 | 21387 ft | 399 kts | 311° |
| 2026-04-29 12:59 | 23.63744 | -110.28353 | 21864 ft | 401 kts | 311° |
| 2026-04-29 12:59 | 23.65731 | -110.30506 | 22333 ft | 404 kts | 311° |
| 2026-04-29 13:00 | 23.67736 | -110.32677 | 22789 ft | 407 kts | 311° |
| 2026-04-29 13:00 | 23.69752 | -110.34861 | 23225 ft | 410 kts | 311° |
| 2026-04-29 13:00 | 23.71784 | -110.37063 | 23652 ft | 413 kts | 311° |
| 2026-04-29 13:00 | 23.73832 | -110.39283 | 24024 ft | 416 kts | 311° |
| 2026-04-29 13:01 | 23.75884 | -110.41509 | 24428 ft | 417 kts | 311° |
| 2026-04-29 13:01 | 23.77950 | -110.43751 | 24810 ft | 419 kts | 311° |
| 2026-04-29 13:01 | 23.80019 | -110.45998 | 25194 ft | 421 kts | 311° |
| 2026-04-29 13:01 | 23.82104 | -110.48262 | 25575 ft | 423 kts | 311° |
| 2026-04-29 13:02 | 23.84195 | -110.50534 | 25941 ft | 426 kts | 311° |
| 2026-04-29 13:02 | 23.86299 | -110.52821 | 26322 ft | 427 kts | 311° |
| 2026-04-29 13:02 | 23.88408 | -110.55116 | 26695 ft | 429 kts | 311° |
| 2026-04-29 13:02 | 23.90610 | -110.57285 | 27058 ft | 434 kts | 316° |
| 2026-04-29 13:03 | 23.92936 | -110.59391 | 27490 ft | 434 kts | 315° |
| 2026-04-29 13:03 | 23.95254 | -110.61521 | 27849 ft | 436 kts | 315° |
| 2026-04-29 13:03 | 23.97573 | -110.63670 | 28167 ft | 438 kts | 315° |
| 2026-04-29 13:03 | 23.99900 | -110.65831 | 28514 ft | 440 kts | 315° |
| 2026-04-29 13:04 | 24.02240 | -110.68009 | 28852 ft | 442 kts | 315° |
| 2026-04-29 13:04 | 24.04585 | -110.70192 | 29184 ft | 444 kts | 315° |
| 2026-04-29 13:04 | 24.06943 | -110.72388 | 29513 ft | 446 kts | 315° |
| 2026-04-29 13:04 | 24.09309 | -110.74594 | 29838 ft | 448 kts | 315° |
| 2026-04-29 13:05 | 24.11688 | -110.76812 | 30137 ft | 450 kts | 315° |
| 2026-04-29 13:05 | 24.14079 | -110.79042 | 30407 ft | 452 kts | 315° |
| 2026-04-29 13:05 | 24.16477 | -110.81280 | 30681 ft | 453 kts | 315° |
| 2026-04-29 13:05 | 24.18877 | -110.83522 | 30957 ft | 455 kts | 315° |
| 2026-04-29 13:06 | 24.21293 | -110.85779 | 31223 ft | 457 kts | 315° |
| 2026-04-29 13:06 | 24.23714 | -110.88042 | 31482 ft | 459 kts | 315° |
| 2026-04-29 13:06 | 24.26143 | -110.90314 | 31747 ft | 460 kts | 315° |
| 2026-04-29 13:06 | 24.28579 | -110.92594 | 32044 ft | 461 kts | 315° |
| 2026-04-29 13:07 | 24.31014 | -110.94874 | 32421 ft | 459 kts | 315° |
| 2026-04-29 13:07 | 24.33443 | -110.97149 | 32817 ft | 458 kts | 315° |
| 2026-04-29 13:07 | 24.35857 | -110.99412 | 33210 ft | 456 kts | 315° |
| 2026-04-29 13:07 | 24.38270 | -111.01676 | 33609 ft | 455 kts | 315° |
| 2026-04-29 13:08 | 24.40668 | -111.03925 | 34012 ft | 453 kts | 315° |
| 2026-04-29 13:08 | 24.43062 | -111.06173 | 34378 ft | 452 kts | 315° |
| 2026-04-29 13:08 | 24.45442 | -111.08409 | 34727 ft | 450 kts | 314° |
| 2026-04-29 13:08 | 24.47813 | -111.10637 | 35056 ft | 448 kts | 314° |
| 2026-04-29 13:09 | 24.50180 | -111.12862 | 35382 ft | 447 kts | 314° |
| 2026-04-29 13:09 | 24.52535 | -111.15077 | 35705 ft | 445 kts | 314° |
| 2026-04-29 13:09 | 24.54882 | -111.17286 | 35950 ft | 445 kts | 314° |
| 2026-04-29 13:10 | 24.59568 | -111.21700 | 35985 ft | 441 kts | 314° |
| 2026-04-29 13:10 | 24.64223 | -111.26089 | 35992 ft | 441 kts | 314° |
| 2026-04-29 13:11 | 24.68877 | -111.30482 | 36009 ft | 441 kts | 314° |
| 2026-04-29 13:11 | 24.72740 | -111.34131 | 35989 ft | 439 kts | 313° |
| 2026-04-29 13:12 | 24.77369 | -111.38509 | 35996 ft | 439 kts | 313° |
| 2026-04-29 13:12 | 24.82008 | -111.42900 | 35996 ft | 439 kts | 313° |
| 2026-04-29 13:13 | 24.86639 | -111.47288 | 35994 ft | 439 kts | 313° |
| 2026-04-29 13:13 | 24.91267 | -111.51677 | 35996 ft | 439 kts | 313° |
| 2026-04-29 13:14 | 24.95894 | -111.56070 | 36011 ft | 439 kts | 313° |
| 2026-04-29 13:14 | 25.00513 | -111.60460 | 35999 ft | 438 kts | 313° |
| 2026-04-29 13:15 | 25.05125 | -111.64849 | 35998 ft | 438 kts | 313° |
| 2026-04-29 13:15 | 25.09740 | -111.69244 | 35999 ft | 438 kts | 313° |
| 2026-04-29 13:16 | 25.14356 | -111.73645 | 35996 ft | 438 kts | 313° |
| 2026-04-29 13:16 | 25.18970 | -111.78048 | 35999 ft | 438 kts | 313° |
| 2026-04-29 13:17 | 25.23568 | -111.82440 | 35993 ft | 436 kts | 312° |
| 2026-04-29 13:17 | 25.28127 | -111.86799 | 36000 ft | 436 kts | 312° |
| 2026-04-29 13:18 | 25.33018 | -111.90911 | 36014 ft | 442 kts | 318° |
| 2026-04-29 13:18 | 25.38043 | -111.94759 | 35997 ft | 442 kts | 318° |
| 2026-04-29 13:19 | 25.43107 | -111.98620 | 35998 ft | 442 kts | 318° |
| 2026-04-29 13:19 | 25.48172 | -112.02486 | 36004 ft | 442 kts | 318° |
| 2026-04-29 13:20 | 25.53229 | -112.06349 | 36001 ft | 442 kts | 318° |
| 2026-04-29 13:20 | 25.58287 | -112.10218 | 35997 ft | 442 kts | 318° |
| 2026-04-29 13:21 | 25.63345 | -112.14090 | 36004 ft | 442 kts | 317° |
| 2026-04-29 13:21 | 25.68399 | -112.17962 | 36002 ft | 442 kts | 317° |
| 2026-04-29 13:22 | 25.73453 | -112.21839 | 36011 ft | 441 kts | 317° |
| 2026-04-29 13:22 | 25.78482 | -112.25702 | 36000 ft | 440 kts | 317° |
| 2026-04-29 13:23 | 25.83482 | -112.29545 | 35999 ft | 440 kts | 317° |
| 2026-04-29 13:23 | 25.88545 | -112.33442 | 35998 ft | 440 kts | 317° |
| 2026-04-29 13:24 | 25.93543 | -112.37292 | 35999 ft | 440 kts | 317° |
| 2026-04-29 13:24 | 25.98572 | -112.41171 | 35999 ft | 440 kts | 317° |
| 2026-04-29 13:25 | 26.03596 | -112.45049 | 35995 ft | 440 kts | 317° |
| 2026-04-29 13:25 | 26.11144 | -112.50885 | 35999 ft | 441 kts | 317° |
| 2026-04-29 13:26 | 26.16177 | -112.54780 | 35998 ft | 440 kts | 317° |
| 2026-04-29 13:26 | 26.21208 | -112.58678 | 36014 ft | 440 kts | 317° |
| 2026-04-29 13:27 | 26.26230 | -112.62575 | 36001 ft | 440 kts | 317° |
| 2026-04-29 13:27 | 26.31252 | -112.66475 | 36000 ft | 440 kts | 317° |
| 2026-04-29 13:28 | 26.36282 | -112.70385 | 35999 ft | 440 kts | 317° |
| 2026-04-29 13:28 | 26.41303 | -112.74293 | 35998 ft | 440 kts | 317° |
| 2026-04-29 13:29 | 26.46323 | -112.78204 | 36000 ft | 440 kts | 317° |
| 2026-04-29 13:29 | 26.51340 | -112.82116 | 36008 ft | 440 kts | 316° |
| 2026-04-29 13:30 | 26.56351 | -112.86029 | 36010 ft | 440 kts | 316° |
| 2026-04-29 13:30 | 26.61366 | -112.89949 | 36011 ft | 440 kts | 316° |
| 2026-04-29 13:31 | 26.66374 | -112.93868 | 36012 ft | 439 kts | 316° |
| 2026-04-29 13:31 | 26.71387 | -112.97794 | 35995 ft | 440 kts | 316° |
| 2026-04-29 13:32 | 26.76359 | -113.01694 | 36022 ft | 439 kts | 316° |
| 2026-04-29 13:32 | 26.81395 | -113.05647 | 36012 ft | 439 kts | 316° |
| 2026-04-29 13:33 | 26.86355 | -113.09545 | 36019 ft | 439 kts | 316° |
| 2026-04-29 13:33 | 26.91358 | -113.13482 | 36035 ft | 440 kts | 316° |
| 2026-04-29 13:34 | 26.96362 | -113.17423 | 36047 ft | 440 kts | 315° |
| 2026-04-29 13:34 | 27.01364 | -113.21368 | 36032 ft | 439 kts | 315° |
| 2026-04-29 13:35 | 27.06361 | -113.25312 | 36034 ft | 439 kts | 315° |
| 2026-04-29 13:35 | 27.11351 | -113.29256 | 36036 ft | 439 kts | 315° |
| 2026-04-29 13:36 | 27.16346 | -113.33208 | 36037 ft | 439 kts | 315° |
| 2026-04-29 13:36 | 27.21337 | -113.37161 | 36070 ft | 439 kts | 315° |
| 2026-04-29 13:37 | 27.26313 | -113.41106 | 36038 ft | 437 kts | 315° |
| 2026-04-29 13:37 | 27.31281 | -113.45050 | 36044 ft | 438 kts | 315° |
| 2026-04-29 13:38 | 27.36269 | -113.49015 | 36046 ft | 439 kts | 315° |
| 2026-04-29 13:38 | 27.41255 | -113.52981 | 36057 ft | 439 kts | 315° |
| 2026-04-29 13:39 | 27.46237 | -113.56950 | 36085 ft | 439 kts | 315° |
| 2026-04-29 13:39 | 27.51213 | -113.60917 | 36063 ft | 438 kts | 315° |
| 2026-04-29 13:40 | 27.56192 | -113.64892 | 36066 ft | 438 kts | 315° |
| 2026-04-29 13:40 | 27.61161 | -113.68863 | 36069 ft | 438 kts | 315° |
| 2026-04-29 13:41 | 27.66137 | -113.72844 | 36056 ft | 438 kts | 315° |
| 2026-04-29 13:41 | 27.71109 | -113.76827 | 36072 ft | 439 kts | 314° |
| 2026-04-29 13:42 | 27.76083 | -113.80816 | 36064 ft | 438 kts | 314° |
| 2026-04-29 13:42 | 27.81018 | -113.84777 | 36066 ft | 438 kts | 314° |
| 2026-04-29 13:43 | 27.85988 | -113.88771 | 36067 ft | 438 kts | 314° |
| 2026-04-29 13:43 | 27.90950 | -113.92763 | 36067 ft | 438 kts | 314° |
| 2026-04-29 13:44 | 27.95939 | -113.96781 | 36070 ft | 436 kts | 314° |
| 2026-04-29 13:44 | 28.00838 | -114.00731 | 36070 ft | 436 kts | 314° |
| 2026-04-29 13:45 | 28.05910 | -114.04559 | 36074 ft | 439 kts | 316° |
| 2026-04-29 13:45 | 28.11014 | -114.08361 | 36069 ft | 440 kts | 316° |
| 2026-04-29 13:46 | 28.16127 | -114.12182 | 36071 ft | 440 kts | 316° |
| 2026-04-29 13:46 | 28.21232 | -114.16002 | 36072 ft | 439 kts | 316° |
| 2026-04-29 13:47 | 28.26325 | -114.19817 | 36075 ft | 439 kts | 316° |
| 2026-04-29 13:47 | 28.31416 | -114.23634 | 36079 ft | 439 kts | 316° |
| 2026-04-29 13:48 | 28.36511 | -114.27459 | 36076 ft | 439 kts | 316° |
| 2026-04-29 13:48 | 28.41600 | -114.31285 | 36076 ft | 439 kts | 316° |
| 2026-04-29 13:49 | 28.46695 | -114.35119 | 36076 ft | 439 kts | 316° |
| 2026-04-29 13:49 | 28.51788 | -114.38956 | 36379 ft | 439 kts | 315° |
| 2026-04-29 13:50 | 28.54334 | -114.40877 | 36638 ft | 439 kts | 315° |
| 2026-04-29 13:50 | 28.56882 | -114.42799 | 36887 ft | 439 kts | 315° |
| 2026-04-29 13:50 | 28.59422 | -114.44717 | 37134 ft | 438 kts | 315° |
| 2026-04-29 13:50 | 28.61959 | -114.46634 | 37380 ft | 438 kts | 315° |
| 2026-04-29 13:51 | 28.64491 | -114.48547 | 37670 ft | 436 kts | 315° |
| 2026-04-29 13:51 | 28.67010 | -114.50453 | 38001 ft | 433 kts | 315° |
| 2026-04-29 13:51 | 28.69521 | -114.52353 | 38120 ft | 434 kts | 315° |
| 2026-04-29 13:51 | 28.72031 | -114.54254 | 38074 ft | 431 kts | 314° |
| 2026-04-29 13:52 | 28.77013 | -114.58030 | 38090 ft | 430 kts | 314° |
| 2026-04-29 13:52 | 28.81999 | -114.61812 | 38088 ft | 430 kts | 314° |
| 2026-04-29 13:53 | 28.86983 | -114.65598 | 38086 ft | 430 kts | 314° |
| 2026-04-29 13:53 | 28.91944 | -114.69372 | 38080 ft | 426 kts | 314° |
| 2026-04-29 13:54 | 28.96874 | -114.73126 | 38086 ft | 426 kts | 314° |
| 2026-04-29 13:54 | 29.01804 | -114.76884 | 38087 ft | 426 kts | 314° |
| 2026-04-29 13:55 | 29.06741 | -114.80652 | 38086 ft | 426 kts | 314° |
| 2026-04-29 13:55 | 29.11638 | -114.84393 | 38111 ft | 426 kts | 314° |
| 2026-04-29 13:56 | 29.16543 | -114.88146 | 38085 ft | 423 kts | 314° |
| 2026-04-29 13:56 | 29.21442 | -114.91898 | 38089 ft | 424 kts | 314° |
| 2026-04-29 13:57 | 29.26343 | -114.95656 | 38087 ft | 424 kts | 314° |
| 2026-04-29 13:57 | 29.30454 | -114.98812 | 38087 ft | 424 kts | 314° |
| 2026-04-29 13:58 | 29.36142 | -115.03183 | 38091 ft | 424 kts | 314° |
| 2026-04-29 13:58 | 29.41039 | -115.06951 | 38091 ft | 424 kts | 314° |
| 2026-04-29 13:59 | 29.45941 | -115.10728 | 38092 ft | 424 kts | 314° |
| 2026-04-29 13:59 | 29.50837 | -115.14504 | 38095 ft | 424 kts | 314° |
| 2026-04-29 14:00 | 29.54909 | -115.17648 | 38087 ft | 424 kts | 314° |
| 2026-04-29 14:00 | 29.59813 | -115.21439 | 38092 ft | 425 kts | 313° |
| 2026-04-29 14:01 | 29.64722 | -115.25239 | 38083 ft | 426 kts | 313° |
| 2026-04-29 14:01 | 29.69633 | -115.29044 | 38104 ft | 426 kts | 313° |
| 2026-04-29 14:02 | 29.74542 | -115.32852 | 38108 ft | 426 kts | 313° |
| 2026-04-29 14:02 | 29.79466 | -115.36677 | 38137 ft | 428 kts | 313° |
| 2026-04-29 14:03 | 29.84413 | -115.40524 | 38099 ft | 429 kts | 313° |
| 2026-04-29 14:03 | 29.89358 | -115.44373 | 38094 ft | 429 kts | 313° |
| 2026-04-29 14:04 | 29.94300 | -115.48226 | 38106 ft | 429 kts | 313° |
| 2026-04-29 14:04 | 29.99245 | -115.52086 | 38112 ft | 429 kts | 313° |
| 2026-04-29 14:05 | 30.04189 | -115.55949 | 38120 ft | 429 kts | 313° |
| 2026-04-29 14:05 | 30.09122 | -115.59809 | 38109 ft | 429 kts | 313° |
| 2026-04-29 14:06 | 30.14062 | -115.63679 | 38113 ft | 429 kts | 313° |
| 2026-04-29 14:06 | 30.18972 | -115.67530 | 38119 ft | 431 kts | 313° |
| 2026-04-29 14:07 | 30.23959 | -115.71446 | 38126 ft | 431 kts | 313° |
| 2026-04-29 14:07 | 30.28920 | -115.75347 | 38110 ft | 431 kts | 313° |
| 2026-04-29 14:08 | 30.33848 | -115.79226 | 38115 ft | 431 kts | 313° |
| 2026-04-29 14:08 | 30.38805 | -115.83132 | 38116 ft | 431 kts | 313° |
| 2026-04-29 14:09 | 30.43763 | -115.87043 | 38115 ft | 431 kts | 313° |
| 2026-04-29 14:09 | 30.48729 | -115.90966 | 38121 ft | 432 kts | 313° |
| 2026-04-29 14:10 | 30.53696 | -115.94889 | 38117 ft | 434 kts | 315° |
| 2026-04-29 14:10 | 30.56435 | -115.96528 | 38119 ft | 451 kts | 325° |
| 2026-04-29 14:10 | 30.59303 | -115.97992 | 38116 ft | 451 kts | 323° |
| 2026-04-29 14:11 | 30.65041 | -116.00965 | 38120 ft | 451 kts | 324° |
| 2026-04-29 14:11 | 30.70783 | -116.03924 | 38119 ft | 451 kts | 324° |
| 2026-04-29 14:12 | 30.76521 | -116.06884 | 38114 ft | 451 kts | 324° |
| 2026-04-29 14:12 | 30.82263 | -116.09849 | 38117 ft | 452 kts | 324° |
| 2026-04-29 14:13 | 30.88003 | -116.12817 | 38113 ft | 451 kts | 323° |
| 2026-04-29 14:13 | 30.93743 | -116.15789 | 38116 ft | 452 kts | 324° |
| 2026-04-29 14:14 | 30.99491 | -116.18769 | 38116 ft | 452 kts | 324° |
| 2026-04-29 14:14 | 31.05236 | -116.21752 | 38117 ft | 452 kts | 324° |
| 2026-04-29 14:15 | 31.10979 | -116.24737 | 38118 ft | 452 kts | 323° |
| 2026-04-29 14:15 | 31.16735 | -116.27733 | 38120 ft | 454 kts | 324° |
| 2026-04-29 14:16 | 31.22510 | -116.30743 | 38110 ft | 454 kts | 324° |
| 2026-04-29 14:16 | 31.28280 | -116.33755 | 38106 ft | 454 kts | 324° |
| 2026-04-29 14:17 | 31.34043 | -116.36767 | 38132 ft | 454 kts | 324° |
| 2026-04-29 14:17 | 31.39808 | -116.39784 | 38113 ft | 454 kts | 323° |
| 2026-04-29 14:18 | 31.45544 | -116.42788 | 38114 ft | 454 kts | 323° |
| 2026-04-29 14:18 | 31.51350 | -116.45832 | 38114 ft | 454 kts | 323° |
| 2026-04-29 14:19 | 31.57120 | -116.48859 | 38119 ft | 454 kts | 323° |
| 2026-04-29 14:19 | 31.62845 | -116.51870 | 38096 ft | 454 kts | 323° |
| 2026-04-29 14:20 | 31.68608 | -116.54903 | 38135 ft | 454 kts | 323° |
| 2026-04-29 14:20 | 31.74368 | -116.57938 | 38128 ft | 454 kts | 323° |
| 2026-04-29 14:21 | 31.80181 | -116.60909 | 38146 ft | 460 kts | 326° |
| 2026-04-29 14:21 | 31.86129 | -116.63632 | 38115 ft | 457 kts | 326° |
| 2026-04-29 14:22 | 31.92043 | -116.66381 | 38131 ft | 458 kts | 326° |
| 2026-04-29 14:22 | 31.97958 | -116.69139 | 38128 ft | 457 kts | 326° |
| 2026-04-29 14:23 | 32.03872 | -116.71898 | 38167 ft | 456 kts | 326° |
| 2026-04-29 14:23 | 32.09765 | -116.74637 | 38129 ft | 454 kts | 326° |
| 2026-04-29 14:24 | 32.15656 | -116.77369 | 38127 ft | 455 kts | 326° |
| 2026-04-29 14:24 | 32.21545 | -116.80105 | 38125 ft | 455 kts | 326° |
| 2026-04-29 14:25 | 32.27429 | -116.82841 | 38139 ft | 455 kts | 326° |
| 2026-04-29 14:25 | 32.33312 | -116.85582 | 38130 ft | 454 kts | 326° |
| 2026-04-29 14:26 | 32.39198 | -116.88328 | 38146 ft | 456 kts | 326° |
| 2026-04-29 14:26 | 32.45103 | -116.91085 | 38152 ft | 456 kts | 326° |
| 2026-04-29 14:27 | 32.51008 | -116.93848 | 38156 ft | 455 kts | 326° |
| 2026-04-29 14:28 | 32.59343 | -116.98769 | 38096 ft | 443 kts | 319° |
| 2026-04-29 14:28 | 32.64730 | -117.02313 | 38118 ft | 443 kts | 319° |
| 2026-04-29 14:29 | 32.70119 | -117.05871 | 38130 ft | 443 kts | 319° |
| 2026-04-29 14:29 | 32.75494 | -117.09425 | 38124 ft | 442 kts | 319° |
| 2026-04-29 14:30 | 32.80826 | -117.12957 | 38126 ft | 442 kts | 319° |
| 2026-04-29 14:30 | 32.86201 | -117.16521 | 38119 ft | 442 kts | 319° |
| 2026-04-29 14:31 | 32.91590 | -117.20100 | 38128 ft | 445 kts | 319° |
| 2026-04-29 14:31 | 32.96991 | -117.23691 | 38117 ft | 444 kts | 319° |
| 2026-04-29 14:32 | 33.02385 | -117.27283 | 38111 ft | 444 kts | 319° |
| 2026-04-29 14:32 | 33.07778 | -117.30880 | 38122 ft | 444 kts | 319° |
| 2026-04-29 14:33 | 33.13170 | -117.34481 | 38117 ft | 444 kts | 319° |
| 2026-04-29 14:33 | 33.18560 | -117.38086 | 38131 ft | 444 kts | 319° |
| 2026-04-29 14:34 | 33.23965 | -117.41668 | 38128 ft | 447 kts | 320° |
| 2026-04-29 14:34 | 33.29494 | -117.45083 | 38168 ft | 447 kts | 320° |
| 2026-04-29 14:35 | 33.35009 | -117.48519 | 38126 ft | 448 kts | 320° |
| 2026-04-29 14:35 | 33.40543 | -117.51973 | 38142 ft | 449 kts | 320° |
| 2026-04-29 14:36 | 33.46044 | -117.55415 | 38121 ft | 448 kts | 320° |
| 2026-04-29 14:36 | 33.51609 | -117.58900 | 38144 ft | 448 kts | 320° |
| 2026-04-29 14:37 | 33.57121 | -117.62357 | 38105 ft | 447 kts | 320° |
| 2026-04-29 14:37 | 33.62602 | -117.65799 | 38118 ft | 448 kts | 320° |
| 2026-04-29 14:38 | 33.68112 | -117.69265 | 38130 ft | 447 kts | 320° |
| 2026-04-29 14:38 | 33.73653 | -117.72755 | 38114 ft | 446 kts | 320° |
| 2026-04-29 14:39 | 33.79150 | -117.76223 | 38123 ft | 446 kts | 320° |
| 2026-04-29 14:39 | 33.84599 | -117.79665 | 38106 ft | 446 kts | 320° |
| 2026-04-29 14:40 | 33.90096 | -117.83143 | 38116 ft | 446 kts | 320° |
| 2026-04-29 14:40 | 33.95573 | -117.86613 | 38101 ft | 444 kts | 320° |
| 2026-04-29 14:41 | 34.01039 | -117.90082 | 38112 ft | 444 kts | 320° |
| 2026-04-29 14:41 | 34.06511 | -117.93559 | 38100 ft | 444 kts | 320° |
| 2026-04-29 14:42 | 34.11972 | -117.97034 | 38127 ft | 444 kts | 320° |
| 2026-04-29 14:42 | 34.17414 | -118.00502 | 38096 ft | 442 kts | 320° |
| 2026-04-29 14:43 | 34.22853 | -118.03976 | 38088 ft | 442 kts | 320° |
| 2026-04-29 14:43 | 34.28287 | -118.07448 | 38075 ft | 442 kts | 320° |
| 2026-04-29 14:44 | 34.33738 | -118.10937 | 38100 ft | 442 kts | 320° |
| 2026-04-29 14:44 | 34.39159 | -118.14413 | 38108 ft | 441 kts | 320° |
| 2026-04-29 14:45 | 34.44583 | -118.17894 | 38108 ft | 441 kts | 320° |
| 2026-04-29 14:45 | 34.50006 | -118.21382 | 38117 ft | 441 kts | 320° |
| 2026-04-29 14:46 | 34.55415 | -118.24865 | 38127 ft | 439 kts | 320° |
| 2026-04-29 14:46 | 34.60801 | -118.28338 | 38140 ft | 439 kts | 320° |
| 2026-04-29 14:47 | 34.65290 | -118.31238 | 38125 ft | 440 kts | 319° |
| 2026-04-29 14:47 | 34.70687 | -118.34727 | 38175 ft | 440 kts | 320° |
| 2026-04-29 14:48 | 34.76065 | -118.38210 | 38126 ft | 438 kts | 320° |
| 2026-04-29 14:48 | 34.81467 | -118.41714 | 38130 ft | 440 kts | 320° |
| 2026-04-29 14:49 | 34.86860 | -118.45217 | 38133 ft | 440 kts | 320° |
| 2026-04-29 14:49 | 34.92259 | -118.48729 | 38164 ft | 440 kts | 320° |
| 2026-04-29 14:50 | 34.97654 | -118.52244 | 38165 ft | 439 kts | 320° |
| 2026-04-29 14:50 | 35.03042 | -118.55759 | 38189 ft | 440 kts | 320° |
| 2026-04-29 14:51 | 35.08420 | -118.59277 | 38183 ft | 438 kts | 320° |
| 2026-04-29 14:51 | 35.13794 | -118.62792 | 38190 ft | 439 kts | 321° |
| 2026-04-29 14:52 | 35.19172 | -118.66316 | 38136 ft | 439 kts | 320° |
| 2026-04-29 14:52 | 35.24568 | -118.69859 | 38128 ft | 441 kts | 321° |
| 2026-04-29 14:53 | 35.29942 | -118.73392 | 38145 ft | 441 kts | 323° |
| 2026-04-29 14:53 | 35.35388 | -118.76976 | 38135 ft | 441 kts | 323° |
| 2026-04-29 14:54 | 35.40762 | -118.80518 | 38140 ft | 441 kts | 323° |
| 2026-04-29 14:54 | 35.46171 | -118.84090 | 38128 ft | 441 kts | 322° |
| 2026-04-29 14:55 | 35.51546 | -118.87729 | 38135 ft | 439 kts | 320° |
| 2026-04-29 14:55 | 35.56746 | -118.91696 | 38130 ft | 440 kts | 321° |
| 2026-04-29 14:56 | 35.61965 | -118.95627 | 38139 ft | 440 kts | 321° |
| 2026-04-29 14:56 | 35.67200 | -118.99570 | 38146 ft | 442 kts | 322° |
| 2026-04-29 14:57 | 35.72437 | -119.03518 | 38132 ft | 441 kts | 322° |
| 2026-04-29 14:57 | 35.77668 | -119.07468 | 38162 ft | 441 kts | 322° |
| 2026-04-29 14:58 | 35.82901 | -119.11426 | 38159 ft | 441 kts | 322° |
| 2026-04-29 14:58 | 35.88127 | -119.15385 | 38156 ft | 440 kts | 323° |
| 2026-04-29 14:59 | 35.93343 | -119.19342 | 38159 ft | 440 kts | 323° |
| 2026-04-29 14:59 | 35.98559 | -119.23306 | 38158 ft | 440 kts | 323° |
| 2026-04-29 15:00 | 36.03771 | -119.27274 | 38165 ft | 440 kts | 324° |
| 2026-04-29 15:00 | 36.08972 | -119.31238 | 38157 ft | 439 kts | 324° |
| 2026-04-29 15:01 | 36.14170 | -119.35207 | 38160 ft | 439 kts | 324° |
| 2026-04-29 15:01 | 36.19334 | -119.39156 | 38162 ft | 439 kts | 324° |
| 2026-04-29 15:02 | 36.24508 | -119.43119 | 38160 ft | 436 kts | 325° |
| 2026-04-29 15:02 | 36.29659 | -119.47070 | 38167 ft | 436 kts | 325° |
| 2026-04-29 15:03 | 36.34810 | -119.51028 | 38164 ft | 436 kts | 325° |
| 2026-04-29 15:03 | 36.39961 | -119.54993 | 38167 ft | 434 kts | 326° |
| 2026-04-29 15:04 | 36.45057 | -119.58920 | 38156 ft | 431 kts | 326° |
| 2026-04-29 15:04 | 36.50156 | -119.62856 | 38150 ft | 431 kts | 326° |
| 2026-04-29 15:05 | 36.55252 | -119.66794 | 38140 ft | 431 kts | 326° |
| 2026-04-29 15:05 | 36.60335 | -119.70752 | 38160 ft | 430 kts | 325° |
| 2026-04-29 15:06 | 36.65389 | -119.74738 | 38166 ft | 430 kts | 325° |
| 2026-04-29 15:06 | 36.70450 | -119.78730 | 38164 ft | 430 kts | 325° |
| 2026-04-29 15:07 | 36.75509 | -119.82725 | 37808 ft | 429 kts | 326° |
| 2026-04-29 15:07 | 36.78023 | -119.84714 | 37569 ft | 429 kts | 326° |
| 2026-04-29 15:07 | 36.80544 | -119.86709 | 37329 ft | 428 kts | 327° |
| 2026-04-29 15:07 | 36.83054 | -119.88698 | 37081 ft | 427 kts | 327° |
| 2026-04-29 15:08 | 36.85567 | -119.90690 | 36838 ft | 427 kts | 327° |
| 2026-04-29 15:08 | 36.88074 | -119.92679 | 36606 ft | 426 kts | 327° |
| 2026-04-29 15:08 | 36.90571 | -119.94661 | 36386 ft | 426 kts | 328° |
| 2026-04-29 15:08 | 36.93064 | -119.96642 | 36156 ft | 423 kts | 328° |
| 2026-04-29 15:09 | 36.95548 | -119.98617 | 35924 ft | 422 kts | 328° |
| 2026-04-29 15:09 | 36.97992 | -120.00563 | 35734 ft | 422 kts | 328° |
| 2026-04-29 15:09 | 37.00494 | -120.02556 | 35515 ft | 421 kts | 328° |
| 2026-04-29 15:09 | 37.02922 | -120.04491 | 35170 ft | 416 kts | 329° |
| 2026-04-29 15:10 | 37.05375 | -120.06446 | 34280 ft | 421 kts | 329° |
| 2026-04-29 15:10 | 37.07895 | -120.08460 | 33181 ft | 425 kts | 329° |
| 2026-04-29 15:10 | 37.10348 | -120.10422 | 32498 ft | 422 kts | 329° |
| 2026-04-29 15:10 | 37.12803 | -120.12385 | 32044 ft | 415 kts | 329° |
| 2026-04-29 15:11 | 37.15212 | -120.14313 | 31602 ft | 408 kts | 329° |
| 2026-04-29 15:11 | 37.17593 | -120.16220 | 31088 ft | 405 kts | 329° |
| 2026-04-29 15:11 | 37.19960 | -120.18117 | 30509 ft | 403 kts | 328° |
| 2026-04-29 15:11 | 37.22323 | -120.20012 | 29866 ft | 403 kts | 328° |
| 2026-04-29 15:12 | 37.24679 | -120.21902 | 29255 ft | 400 kts | 328° |
| 2026-04-29 15:12 | 37.26254 | -120.23166 | 28889 ft | 397 kts | 328° |
| 2026-04-29 15:12 | 37.29344 | -120.25598 | 28114 ft | 394 kts | 329° |
| 2026-04-29 15:12 | 37.31663 | -120.27402 | 27598 ft | 391 kts | 328° |
| 2026-04-29 15:13 | 37.33958 | -120.29191 | 27111 ft | 387 kts | 328° |
| 2026-04-29 15:13 | 37.36239 | -120.30971 | 26596 ft | 384 kts | 328° |
| 2026-04-29 15:13 | 37.38495 | -120.32734 | 26084 ft | 381 kts | 328° |
| 2026-04-29 15:13 | 37.40740 | -120.34489 | 25558 ft | 379 kts | 328° |
| 2026-04-29 15:14 | 37.42974 | -120.36237 | 25072 ft | 377 kts | 328° |
| 2026-04-29 15:14 | 37.45192 | -120.37974 | 24565 ft | 375 kts | 328° |
| 2026-04-29 15:14 | 37.47357 | -120.39784 | 24049 ft | 373 kts | 321° |
| 2026-04-29 15:14 | 37.49368 | -120.41852 | 23484 ft | 372 kts | 321° |
| 2026-04-29 15:15 | 37.51380 | -120.43879 | 22987 ft | 369 kts | 321° |
| 2026-04-29 15:15 | 37.53380 | -120.45874 | 22524 ft | 365 kts | 321° |
| 2026-04-29 15:15 | 37.55368 | -120.47847 | 22064 ft | 362 kts | 322° |
| 2026-04-29 15:15 | 37.57335 | -120.49793 | 21619 ft | 358 kts | 322° |
| 2026-04-29 15:16 | 37.59265 | -120.51704 | 21219 ft | 355 kts | 322° |
| 2026-04-29 15:16 | 37.61180 | -120.53621 | 20914 ft | 349 kts | 322° |
| 2026-04-29 15:16 | 37.63088 | -120.55533 | 20661 ft | 351 kts | 322° |
| 2026-04-29 15:16 | 37.64996 | -120.57447 | 20441 ft | 351 kts | 322° |
| 2026-04-29 15:17 | 37.66904 | -120.59361 | 20197 ft | 350 kts | 322° |
| 2026-04-29 15:17 | 37.68808 | -120.61272 | 19949 ft | 349 kts | 322° |
| 2026-04-29 15:17 | 37.70710 | -120.63182 | 19704 ft | 348 kts | 322° |
| 2026-04-29 15:17 | 37.72605 | -120.65087 | 19471 ft | 348 kts | 322° |
| 2026-04-29 15:18 | 37.74496 | -120.66989 | 19059 ft | 349 kts | 322° |
| 2026-04-29 15:18 | 37.76388 | -120.68892 | 18658 ft | 347 kts | 322° |
| 2026-04-29 15:18 | 37.78277 | -120.70794 | 18167 ft | 347 kts | 322° |
| 2026-04-29 15:18 | 37.80157 | -120.72687 | 17726 ft | 344 kts | 322° |
| 2026-04-29 15:19 | 37.82020 | -120.74565 | 17328 ft | 341 kts | 322° |
| 2026-04-29 15:19 | 37.83865 | -120.76427 | 16957 ft | 337 kts | 322° |
| 2026-04-29 15:19 | 37.85704 | -120.78284 | 16573 ft | 339 kts | 322° |
| 2026-04-29 15:19 | 37.87542 | -120.80150 | 16209 ft | 339 kts | 322° |
| 2026-04-29 15:20 | 37.89383 | -120.82020 | 15872 ft | 339 kts | 322° |
| 2026-04-29 15:20 | 37.91219 | -120.83885 | 15535 ft | 338 kts | 322° |
| 2026-04-29 15:20 | 37.93050 | -120.85747 | 15180 ft | 337 kts | 322° |
| 2026-04-29 15:20 | 37.94882 | -120.87611 | 14819 ft | 337 kts | 322° |
| 2026-04-29 15:21 | 37.96705 | -120.89466 | 14478 ft | 336 kts | 322° |
| 2026-04-29 15:21 | 37.98528 | -120.91324 | 14143 ft | 336 kts | 322° |
| 2026-04-29 15:21 | 38.00346 | -120.93177 | 13758 ft | 335 kts | 322° |
| 2026-04-29 15:21 | 38.02163 | -120.95031 | 13367 ft | 335 kts | 322° |
| 2026-04-29 15:22 | 38.03975 | -120.96881 | 12997 ft | 333 kts | 322° |
| 2026-04-29 15:22 | 38.05772 | -120.98716 | 12656 ft | 332 kts | 322° |
| 2026-04-29 15:22 | 38.07543 | -121.00585 | 12309 ft | 330 kts | 316° |
| 2026-04-29 15:22 | 38.09050 | -121.02757 | 11931 ft | 327 kts | 311° |
| 2026-04-29 15:23 | 38.10519 | -121.04940 | 11593 ft | 323 kts | 311° |
| 2026-04-29 15:23 | 38.11974 | -121.07093 | 11277 ft | 319 kts | 311° |
| 2026-04-29 15:23 | 38.13415 | -121.09222 | 10939 ft | 316 kts | 311° |
| 2026-04-29 15:23 | 38.14842 | -121.11330 | 10605 ft | 314 kts | 310° |
| 2026-04-29 15:24 | 38.16258 | -121.13421 | 10277 ft | 311 kts | 310° |
| 2026-04-29 15:24 | 38.17662 | -121.15495 | 9944 ft | 309 kts | 310° |
| 2026-04-29 15:24 | 38.19062 | -121.17557 | 9560 ft | 307 kts | 310° |
| 2026-04-29 15:24 | 38.20454 | -121.19607 | 9185 ft | 306 kts | 310° |
| 2026-04-29 15:25 | 38.21855 | -121.21611 | 9010 ft | 297 kts | 315° |
| 2026-04-29 15:25 | 38.23280 | -121.23382 | 8999 ft | 284 kts | 315° |
| 2026-04-29 15:25 | 38.24660 | -121.25110 | 8998 ft | 276 kts | 315° |
| 2026-04-29 15:25 | 38.26018 | -121.26821 | 8982 ft | 274 kts | 315° |
| 2026-04-29 15:26 | 38.27370 | -121.28530 | 8972 ft | 274 kts | 315° |
| 2026-04-29 15:26 | 38.28716 | -121.30237 | 8975 ft | 274 kts | 315° |
| 2026-04-29 15:26 | 38.30067 | -121.31954 | 8985 ft | 274 kts | 315° |
| 2026-04-29 15:26 | 38.31412 | -121.33663 | 8986 ft | 274 kts | 315° |
| 2026-04-29 15:27 | 38.32761 | -121.35378 | 8990 ft | 274 kts | 315° |
| 2026-04-29 15:27 | 38.34109 | -121.37093 | 8988 ft | 274 kts | 315° |
| 2026-04-29 15:27 | 38.35455 | -121.38807 | 8993 ft | 274 kts | 315° |
| 2026-04-29 15:27 | 38.36800 | -121.40521 | 8995 ft | 274 kts | 315° |
| 2026-04-29 15:28 | 38.38146 | -121.42238 | 8994 ft | 274 kts | 315° |
| 2026-04-29 15:28 | 38.39035 | -121.43372 | 8995 ft | 274 kts | 315° |
| 2026-04-29 15:28 | 38.40837 | -121.45672 | 8996 ft | 274 kts | 315° |
| 2026-04-29 15:28 | 38.42179 | -121.47386 | 8998 ft | 273 kts | 315° |
| 2026-04-29 15:29 | 38.43523 | -121.49102 | 8996 ft | 274 kts | 315° |
| 2026-04-29 15:29 | 38.46212 | -121.52543 | 9001 ft | 273 kts | 315° |
| 2026-04-29 15:30 | 38.49061 | -121.55733 | 9006 ft | 273 kts | 322° |
| 2026-04-29 15:30 | 38.50561 | -121.57220 | 8997 ft | 273 kts | 322° |
| 2026-04-29 15:30 | 38.52047 | -121.58710 | 8798 ft | 271 kts | 322° |
| 2026-04-29 15:30 | 38.53527 | -121.60206 | 8480 ft | 271 kts | 322° |
| 2026-04-29 15:31 | 38.55001 | -121.61702 | 8153 ft | 270 kts | 322° |
| 2026-04-29 15:31 | 38.56465 | -121.63192 | 7862 ft | 268 kts | 322° |
| 2026-04-29 15:31 | 38.57922 | -121.64624 | 7549 ft | 267 kts | 329° |
| 2026-04-29 15:31 | 38.59642 | -121.65476 | 7251 ft | 265 kts | 343° |
| 2026-04-29 15:32 | 38.61405 | -121.66165 | 6940 ft | 264 kts | 343° |
| 2026-04-29 15:32 | 38.63159 | -121.66850 | 6627 ft | 264 kts | 343° |
| 2026-04-29 15:32 | 38.64909 | -121.67529 | 6382 ft | 260 kts | 343° |
| 2026-04-29 15:32 | 38.66631 | -121.68194 | 6269 ft | 250 kts | 343° |
| 2026-04-29 15:33 | 38.68245 | -121.68816 | 6171 ft | 241 kts | 343° |
| 2026-04-29 15:33 | 38.69814 | -121.69421 | 6075 ft | 231 kts | 343° |
| 2026-04-29 15:33 | 38.71339 | -121.69985 | 5858 ft | 227 kts | 349° |
| 2026-04-29 15:33 | 38.72900 | -121.70131 | 5592 ft | 224 kts | 0° |
| 2026-04-29 15:34 | 38.74464 | -121.70099 | 5323 ft | 224 kts | 1° |
| 2026-04-29 15:34 | 38.76012 | -121.70062 | 5075 ft | 222 kts | 1° |
| 2026-04-29 15:34 | 38.77549 | -121.70026 | 4843 ft | 220 kts | 1° |
| 2026-04-29 15:34 | 38.79075 | -121.69990 | 4566 ft | 219 kts | 1° |
| 2026-04-29 15:35 | 38.80596 | -121.69953 | 4294 ft | 218 kts | 1° |
| 2026-04-29 15:35 | 38.82114 | -121.69917 | 4038 ft | 217 kts | 1° |
| 2026-04-29 15:35 | 38.83622 | -121.69879 | 3773 ft | 217 kts | 1° |
| 2026-04-29 15:35 | 38.85122 | -121.69841 | 3486 ft | 216 kts | 2° |
| 2026-04-29 15:36 | 38.86522 | -121.69269 | 3232 ft | 212 kts | 36° |
| 2026-04-29 15:36 | 38.87612 | -121.67988 | 2897 ft | 215 kts | 49° |
| 2026-04-29 15:36 | 38.88109 | -121.66214 | 2606 ft | 216 kts | 91° |
| 2026-04-29 15:36 | 38.87839 | -121.64357 | 2497 ft | 207 kts | 103° |
| 2026-04-29 15:37 | 38.87601 | -121.63189 | 2446 ft | 201 kts | 103° |
| 2026-04-29 15:37 | 38.87106 | -121.61541 | 2195 ft | 201 kts | 124° |
| 2026-04-29 15:37 | 38.86142 | -121.60263 | 2039 ft | 198 kts | 141° |
| 2026-04-29 15:37 | 38.85038 | -121.59205 | 2011 ft | 199 kts | 143° |
| 2026-04-29 15:38 | 38.83881 | -121.58212 | 1996 ft | 201 kts | 154° |
| 2026-04-29 15:38 | 38.82588 | -121.57786 | 1998 ft | 185 kts | 176° |
| 2026-04-29 15:38 | 38.81318 | -121.57792 | 1968 ft | 180 kts | 182° |
| 2026-04-29 15:38 | 38.80090 | -121.57845 | 2007 ft | 175 kts | 181° |
| 2026-04-29 15:39 | 38.78894 | -121.57869 | 1716 ft | 166 kts | 180° |
| 2026-04-29 15:39 | 38.77789 | -121.57886 | 1511 ft | 154 kts | 181° |
| 2026-04-29 15:39 | 38.76734 | -121.57904 | 1265 ft | 149 kts | 180° |
| 2026-04-29 15:39 | 38.75705 | -121.57922 | 1051 ft | 147 kts | 180° |
| 2026-04-29 15:40 | 38.74690 | -121.57939 | 837 ft | 145 kts | 181° |
| 2026-04-29 15:40 | 38.73680 | -121.57955 | 660 ft | 145 kts | 181° |
| 2026-04-29 15:40 | 38.72675 | -121.57973 | 460 ft | 144 kts | 181° |
| 2026-04-29 15:40 | 38.71669 | -121.57991 | 267 ft | 145 kts | 181° |
| 2026-04-29 15:41 | 38.70665 | -121.58009 | 68 ft | 144 kts | 181° |
| 2026-04-29 15:41 | 38.69761 | -121.58024 | 31 ft | 101 kts | 181° |
| 2026-04-29 15:41 | 38.69282 | -121.58035 | 32 ft | 34 kts | 186° |
| 2026-04-29 15:41 | 38.69112 | -121.58153 | 32 ft | 18 kts | 212° |
| 2026-04-29 15:42 | 38.69033 | -121.58231 | 31 ft | 12 kts | 247° |
| 2026-04-29 15:42 | 38.69069 | -121.58298 | 31 ft | 11 kts | 0° |
| 2026-04-29 15:42 | 38.69154 | -121.58297 | 31 ft | 14 kts | 0° |
| 2026-04-29 15:42 | 38.69259 | -121.58296 | 31 ft | 16 kts | 0° |
| 2026-04-29 15:43 | 38.69381 | -121.58296 | 31 ft | 19 kts | 1° |
| 2026-04-29 15:43 | 38.69520 | -121.58290 | 31 ft | 21 kts | 1° |
| 2026-04-29 15:43 | 38.69603 | -121.58302 | 31 ft | 10 kts | 321° |
| 2026-04-29 15:43 | 38.69614 | -121.58392 | 31 ft | 12 kts | 270° |
| 2026-04-29 15:44 | 38.69615 | -121.58507 | 31 ft | 14 kts | 271° |
| 2026-04-29 15:44 | 38.69617 | -121.58645 | 31 ft | 17 kts | 271° |
| 2026-04-29 15:44 | 38.69619 | -121.58806 | 31 ft | 19 kts | 271° |
| 2026-04-29 15:44 | 38.69593 | -121.58915 | 31 ft | 13 kts | 201° |
| 2026-04-29 15:45 | 38.69496 | -121.58921 | 31 ft | 15 kts | 184° |
| 2026-04-29 15:45 | 38.69458 | -121.58995 | 31 ft | 11 kts | 271° |
| 2026-04-29 15:45 | 38.69462 | -121.59101 | 31 ft | 11 kts | 273° |
| 2026-04-29 15:45 | 38.69472 | -121.59140 | 31 ft | 2 kts | 330° |
| 2026-04-29 15:46 | 38.69495 | -121.59143 | 31 ft | 4 kts | 356° |
| 2026-04-29 15:46 | 38.69519 | -121.59144 | 31 ft | 2 kts | 359° |